sensor_id;sensor_type;location;lat;lon;timestamp;P1;durP1;ratioP1;P2;durP2;ratioP2
29200;SDS011;16244;51.956;12.980;2022-07-01T00:01:06;29.17;;;20.83;;
29200;SDS011;16244;51.956;12.980;2022-07-01T00:03:33;28.23;;;21.00;;
29200;SDS011;16244;51.956;12.980;2022-07-01T00:06:01;25.93;;;19.80;;
29200;SDS011;16244;51.956;12.980;2022-07-01T00:08:28;28.20;;;19.97;;
29200;SDS011;16244;51.956;12.980;2022-07-01T00:10:55;25.63;;;17.60;;
29200;SDS011;16244;51.956;12.980;2022-07-01T00:13:22;25.37;;;18.80;;
29200;SDS011;16244;51.956;12.980;2022-07-01T00:15:49;32.43;;;19.77;;
29200;SDS011;16244;51.956;12.980;2022-07-01T00:18:18;25.60;;;19.70;;
29200;SDS011;16244;51.956;12.980;2022-07-01T00:20:47;29.10;;;20.27;;
29200;SDS011;16244;51.956;12.980;2022-07-01T00:23:14;25.40;;;19.53;;
29200;SDS011;16244;51.956;12.980;2022-07-01T00:25:42;29.13;;;20.03;;
29200;SDS011;16244;51.956;12.980;2022-07-01T00:28:09;25.00;;;17.63;;
29200;SDS011;16244;51.956;12.980;2022-07-01T00:30:37;24.77;;;19.10;;
29200;SDS011;16244;51.956;12.980;2022-07-01T00:33:04;24.17;;;18.83;;
29200;SDS011;16244;51.956;12.980;2022-07-01T00:35:33;27.10;;;19.90;;
29200;SDS011;16244;51.956;12.980;2022-07-01T00:38:00;27.00;;;18.50;;
29200;SDS011;16244;51.956;12.980;2022-07-01T00:40:27;25.40;;;19.70;;
29200;SDS011;16244;51.956;12.980;2022-07-01T00:42:55;30.87;;;20.07;;
29200;SDS011;16244;51.956;12.980;2022-07-01T00:45:22;24.40;;;19.60;;
29200;SDS011;16244;51.956;12.980;2022-07-01T00:47:49;28.63;;;20.53;;
29200;SDS011;16244;51.956;12.980;2022-07-01T00:50:17;29.07;;;20.93;;
29200;SDS011;16244;51.956;12.980;2022-07-01T00:52:46;27.07;;;20.00;;
29200;SDS011;16244;51.956;12.980;2022-07-01T00:55:14;27.87;;;20.73;;
29200;SDS011;16244;51.956;12.980;2022-07-01T00:57:42;31.10;;;21.47;;
29200;SDS011;16244;51.956;12.980;2022-07-01T01:00:11;32.13;;;22.43;;
29200;SDS011;16244;51.956;12.980;2022-07-01T01:02:40;29.00;;;20.87;;
29200;SDS011;16244;51.956;12.980;2022-07-01T01:05:08;28.53;;;21.90;;
29200;SDS011;16244;51.956;12.980;2022-07-01T01:07:35;28.10;;;20.70;;
29200;SDS011;16244;51.956;12.980;2022-07-01T01:10:05;31.33;;;22.80;;
29200;SDS011;16244;51.956;12.980;2022-07-01T01:12:32;33.43;;;21.73;;
29200;SDS011;16244;51.956;12.980;2022-07-01T01:15:00;33.60;;;22.73;;
29200;SDS011;16244;51.956;12.980;2022-07-01T01:17:28;32.30;;;22.90;;
29200;SDS011;16244;51.956;12.980;2022-07-01T01:19:56;39.60;;;26.70;;
29200;SDS011;16244;51.956;12.980;2022-07-01T01:22:24;34.97;;;25.17;;
29200;SDS011;16244;51.956;12.980;2022-07-01T01:24:51;40.13;;;24.57;;
29200;SDS011;16244;51.956;12.980;2022-07-01T01:27:19;33.40;;;25.00;;
29200;SDS011;16244;51.956;12.980;2022-07-01T01:29:46;32.80;;;23.60;;
29200;SDS011;16244;51.956;12.980;2022-07-01T01:32:13;30.00;;;23.50;;
29200;SDS011;16244;51.956;12.980;2022-07-01T01:34:40;40.17;;;27.50;;
29200;SDS011;16244;51.956;12.980;2022-07-01T01:37:08;37.80;;;27.67;;
29200;SDS011;16244;51.956;12.980;2022-07-01T01:39:37;40.83;;;26.93;;
29200;SDS011;16244;51.956;12.980;2022-07-01T01:42:04;37.50;;;26.43;;
29200;SDS011;16244;51.956;12.980;2022-07-01T01:44:32;41.33;;;27.40;;
29200;SDS011;16244;51.956;12.980;2022-07-01T01:47:00;40.60;;;28.20;;
29200;SDS011;16244;51.956;12.980;2022-07-01T01:49:27;41.27;;;28.30;;
29200;SDS011;16244;51.956;12.980;2022-07-01T01:51:54;40.70;;;27.30;;
29200;SDS011;16244;51.956;12.980;2022-07-01T01:54:25;42.63;;;28.00;;
29200;SDS011;16244;51.956;12.980;2022-07-01T01:56:53;38.70;;;27.90;;
29200;SDS011;16244;51.956;12.980;2022-07-01T01:59:21;52.70;;;29.27;;
29200;SDS011;16244;51.956;12.980;2022-07-01T02:01:48;45.23;;;29.47;;
29200;SDS011;16244;51.956;12.980;2022-07-01T02:04:15;37.63;;;27.43;;
29200;SDS011;16244;51.956;12.980;2022-07-01T02:06:43;40.33;;;28.60;;
29200;SDS011;16244;51.956;12.980;2022-07-01T02:09:10;35.93;;;27.17;;
29200;SDS011;16244;51.956;12.980;2022-07-01T02:11:38;40.70;;;29.10;;
29200;SDS011;16244;51.956;12.980;2022-07-01T02:14:07;51.97;;;29.03;;
29200;SDS011;16244;51.956;12.980;2022-07-01T02:16:34;37.23;;;27.23;;
29200;SDS011;16244;51.956;12.980;2022-07-01T02:19:01;42.47;;;28.10;;
29200;SDS011;16244;51.956;12.980;2022-07-01T02:21:29;45.93;;;28.60;;
29200;SDS011;16244;51.956;12.980;2022-07-01T02:23:56;39.90;;;27.83;;
29200;SDS011;16244;51.956;12.980;2022-07-01T02:26:23;40.17;;;28.40;;
29200;SDS011;16244;51.956;12.980;2022-07-01T02:28:50;33.70;;;25.20;;
29200;SDS011;16244;51.956;12.980;2022-07-01T02:31:19;36.53;;;25.40;;
29200;SDS011;16244;51.956;12.980;2022-07-01T02:33:46;38.90;;;27.13;;
29200;SDS011;16244;51.956;12.980;2022-07-01T02:36:14;36.77;;;25.70;;
29200;SDS011;16244;51.956;12.980;2022-07-01T02:38:41;35.63;;;25.30;;
29200;SDS011;16244;51.956;12.980;2022-07-01T02:41:08;35.40;;;24.77;;
29200;SDS011;16244;51.956;12.980;2022-07-01T02:43:35;38.93;;;26.37;;
29200;SDS011;16244;51.956;12.980;2022-07-01T02:46:02;37.73;;;25.70;;
29200;SDS011;16244;51.956;12.980;2022-07-01T02:48:31;40.13;;;27.47;;
29200;SDS011;16244;51.956;12.980;2022-07-01T02:50:58;34.47;;;25.33;;
29200;SDS011;16244;51.956;12.980;2022-07-01T02:53:25;35.90;;;26.93;;
29200;SDS011;16244;51.956;12.980;2022-07-01T02:55:52;35.53;;;24.47;;
29200;SDS011;16244;51.956;12.980;2022-07-01T02:58:20;41.33;;;26.73;;
29200;SDS011;16244;51.956;12.980;2022-07-01T03:00:47;37.87;;;28.47;;
29200;SDS011;16244;51.956;12.980;2022-07-01T03:03:17;45.87;;;26.33;;
29200;SDS011;16244;51.956;12.980;2022-07-01T03:05:46;40.73;;;27.80;;
29200;SDS011;16244;51.956;12.980;2022-07-01T03:08:14;44.13;;;27.97;;
29200;SDS011;16244;51.956;12.980;2022-07-01T03:10:41;37.50;;;27.60;;
29200;SDS011;16244;51.956;12.980;2022-07-01T03:13:09;48.70;;;30.60;;
29200;SDS011;16244;51.956;12.980;2022-07-01T03:15:36;45.53;;;30.37;;
29200;SDS011;16244;51.956;12.980;2022-07-01T03:18:03;39.90;;;28.67;;
29200;SDS011;16244;51.956;12.980;2022-07-01T03:20:30;42.70;;;30.40;;
29200;SDS011;16244;51.956;12.980;2022-07-01T03:22:59;44.60;;;30.37;;
29200;SDS011;16244;51.956;12.980;2022-07-01T03:25:26;46.53;;;30.60;;
29200;SDS011;16244;51.956;12.980;2022-07-01T03:27:53;51.13;;;29.60;;
29200;SDS011;16244;51.956;12.980;2022-07-01T03:30:21;45.87;;;29.83;;
29200;SDS011;16244;51.956;12.980;2022-07-01T03:32:48;37.70;;;27.17;;
29200;SDS011;16244;51.956;12.980;2022-07-01T03:35:15;44.37;;;30.00;;
29200;SDS011;16244;51.956;12.980;2022-07-01T03:38:01;40.20;;;28.67;;
29200;SDS011;16244;51.956;12.980;2022-07-01T03:40:29;43.00;;;30.27;;
29200;SDS011;16244;51.956;12.980;2022-07-01T03:42:56;45.77;;;29.43;;
29200;SDS011;16244;51.956;12.980;2022-07-01T03:45:24;41.10;;;28.77;;
29200;SDS011;16244;51.956;12.980;2022-07-01T03:47:51;49.50;;;29.60;;
29200;SDS011;16244;51.956;12.980;2022-07-01T03:50:20;44.53;;;29.53;;
29200;SDS011;16244;51.956;12.980;2022-07-01T03:52:48;49.80;;;29.60;;
29200;SDS011;16244;51.956;12.980;2022-07-01T03:55:37;42.00;;;28.47;;
29200;SDS011;16244;51.956;12.980;2022-07-01T03:58:03;51.10;;;27.90;;
29200;SDS011;16244;51.956;12.980;2022-07-01T04:00:31;43.33;;;29.23;;
29200;SDS011;16244;51.956;12.980;2022-07-01T04:03:00;44.07;;;30.50;;
29200;SDS011;16244;51.956;12.980;2022-07-01T04:05:28;45.57;;;29.80;;
29200;SDS011;16244;51.956;12.980;2022-07-01T04:07:55;41.90;;;28.60;;
29200;SDS011;16244;51.956;12.980;2022-07-01T04:10:23;38.90;;;28.10;;
29200;SDS011;16244;51.956;12.980;2022-07-01T04:12:52;45.30;;;30.63;;
29200;SDS011;16244;51.956;12.980;2022-07-01T04:15:19;41.00;;;28.43;;
29200;SDS011;16244;51.956;12.980;2022-07-01T04:17:46;44.20;;;29.23;;
29200;SDS011;16244;51.956;12.980;2022-07-01T04:20:13;42.07;;;29.37;;
29200;SDS011;16244;51.956;12.980;2022-07-01T04:22:40;36.83;;;27.00;;
29200;SDS011;16244;51.956;12.980;2022-07-01T04:25:06;50.07;;;29.10;;
29200;SDS011;16244;51.956;12.980;2022-07-01T04:27:34;39.67;;;27.60;;
29200;SDS011;16244;51.956;12.980;2022-07-01T04:30:03;42.60;;;28.50;;
29200;SDS011;16244;51.956;12.980;2022-07-01T04:32:31;45.83;;;29.17;;
29200;SDS011;16244;51.956;12.980;2022-07-01T04:34:58;44.30;;;29.63;;
29200;SDS011;16244;51.956;12.980;2022-07-01T04:37:25;41.40;;;28.97;;
29200;SDS011;16244;51.956;12.980;2022-07-01T04:39:52;43.80;;;29.00;;
29200;SDS011;16244;51.956;12.980;2022-07-01T04:42:19;40.60;;;26.80;;
29200;SDS011;16244;51.956;12.980;2022-07-01T04:44:47;39.07;;;28.33;;
29200;SDS011;16244;51.956;12.980;2022-07-01T04:47:16;40.43;;;30.07;;
29200;SDS011;16244;51.956;12.980;2022-07-01T04:49:43;38.83;;;26.70;;
29200;SDS011;16244;51.956;12.980;2022-07-01T04:52:10;38.73;;;27.50;;
29200;SDS011;16244;51.956;12.980;2022-07-01T04:54:37;42.87;;;27.90;;
29200;SDS011;16244;51.956;12.980;2022-07-01T04:57:04;42.40;;;25.53;;
29200;SDS011;16244;51.956;12.980;2022-07-01T04:59:31;33.80;;;25.83;;
29200;SDS011;16244;51.956;12.980;2022-07-01T05:01:58;35.97;;;26.30;;
29200;SDS011;16244;51.956;12.980;2022-07-01T05:04:27;36.87;;;24.20;;
29200;SDS011;16244;51.956;12.980;2022-07-01T05:06:54;39.13;;;25.40;;
29200;SDS011;16244;51.956;12.980;2022-07-01T05:09:22;33.57;;;23.97;;
29200;SDS011;16244;51.956;12.980;2022-07-01T05:11:49;32.20;;;23.30;;
29200;SDS011;16244;51.956;12.980;2022-07-01T05:14:16;35.70;;;23.83;;
29200;SDS011;16244;51.956;12.980;2022-07-01T05:16:43;37.60;;;25.77;;
29200;SDS011;16244;51.956;12.980;2022-07-01T05:19:10;30.17;;;24.47;;
29200;SDS011;16244;51.956;12.980;2022-07-01T05:21:56;39.10;;;23.23;;
29200;SDS011;16244;51.956;12.980;2022-07-01T05:24:25;37.90;;;24.87;;
29200;SDS011;16244;51.956;12.980;2022-07-01T05:26:58;34.27;;;26.10;;
29200;SDS011;16244;51.956;12.980;2022-07-01T05:29:25;33.87;;;24.50;;
29200;SDS011;16244;51.956;12.980;2022-07-01T05:31:53;35.57;;;25.37;;
29200;SDS011;16244;51.956;12.980;2022-07-01T05:34:20;33.40;;;24.77;;
29200;SDS011;16244;51.956;12.980;2022-07-01T05:36:47;34.10;;;24.53;;
29200;SDS011;16244;51.956;12.980;2022-07-01T05:39:16;33.20;;;23.10;;
29200;SDS011;16244;51.956;12.980;2022-07-01T05:41:43;27.97;;;22.40;;
29200;SDS011;16244;51.956;12.980;2022-07-01T05:44:11;34.30;;;21.60;;
29200;SDS011;16244;51.956;12.980;2022-07-01T05:46:38;29.43;;;22.63;;
29200;SDS011;16244;51.956;12.980;2022-07-01T05:49:05;36.70;;;21.97;;
29200;SDS011;16244;51.956;12.980;2022-07-01T05:51:32;29.93;;;20.47;;
29200;SDS011;16244;51.956;12.980;2022-07-01T05:53:59;34.67;;;23.03;;
29200;SDS011;16244;51.956;12.980;2022-07-01T05:56:27;35.17;;;22.60;;
29200;SDS011;16244;51.956;12.980;2022-07-01T05:58:54;26.57;;;21.10;;
29200;SDS011;16244;51.956;12.980;2022-07-01T06:01:22;27.80;;;21.20;;
29200;SDS011;16244;51.956;12.980;2022-07-01T06:03:49;26.63;;;20.57;;
29200;SDS011;16244;51.956;12.980;2022-07-01T06:06:16;29.60;;;19.70;;
29200;SDS011;16244;51.956;12.980;2022-07-01T06:08:45;24.73;;;16.40;;
29200;SDS011;16244;51.956;12.980;2022-07-01T06:11:12;24.33;;;13.10;;
29200;SDS011;16244;51.956;12.980;2022-07-01T06:13:41;19.07;;;11.37;;
29200;SDS011;16244;51.956;12.980;2022-07-01T06:16:08;16.60;;;11.73;;
29200;SDS011;16244;51.956;12.980;2022-07-01T06:18:35;16.20;;;10.03;;
29200;SDS011;16244;51.956;12.980;2022-07-01T06:21:03;13.57;;;9.33;;
29200;SDS011;16244;51.956;12.980;2022-07-01T06:23:30;12.97;;;9.47;;
29200;SDS011;16244;51.956;12.980;2022-07-01T06:25:57;13.70;;;8.20;;
29200;SDS011;16244;51.956;12.980;2022-07-01T06:28:24;12.77;;;8.10;;
29200;SDS011;16244;51.956;12.980;2022-07-01T06:30:56;14.00;;;8.80;;
29200;SDS011;16244;51.956;12.980;2022-07-01T06:33:24;17.00;;;8.57;;
29200;SDS011;16244;51.956;12.980;2022-07-01T06:35:52;13.30;;;7.97;;
29200;SDS011;16244;51.956;12.980;2022-07-01T06:38:19;13.33;;;7.50;;
29200;SDS011;16244;51.956;12.980;2022-07-01T06:40:46;14.70;;;7.60;;
29200;SDS011;16244;51.956;12.980;2022-07-01T06:43:34;13.40;;;6.97;;
29200;SDS011;16244;51.956;12.980;2022-07-01T06:46:03;17.50;;;7.53;;
29200;SDS011;16244;51.956;12.980;2022-07-01T06:48:31;16.40;;;9.80;;
29200;SDS011;16244;51.956;12.980;2022-07-01T06:50:58;13.43;;;7.68;;
29200;SDS011;16244;51.956;12.980;2022-07-01T06:53:25;20.50;;;6.82;;
29200;SDS011;16244;51.956;12.980;2022-07-01T06:55:52;9.43;;;4.73;;
29200;SDS011;16244;51.956;12.980;2022-07-01T06:58:19;12.10;;;4.67;;
29200;SDS011;16244;51.956;12.980;2022-07-01T07:00:46;10.33;;;3.87;;
29200;SDS011;16244;51.956;12.980;2022-07-01T07:03:15;13.40;;;4.40;;
29200;SDS011;16244;51.956;12.980;2022-07-01T07:05:42;9.60;;;3.60;;
29200;SDS011;16244;51.956;12.980;2022-07-01T07:08:09;8.37;;;3.07;;
29200;SDS011;16244;51.956;12.980;2022-07-01T07:10:36;12.63;;;3.30;;
29200;SDS011;16244;51.956;12.980;2022-07-01T07:13:03;8.70;;;3.50;;
29200;SDS011;16244;51.956;12.980;2022-07-01T07:15:30;8.77;;;3.20;;
29200;SDS011;16244;51.956;12.980;2022-07-01T07:17:57;9.70;;;3.53;;
29200;SDS011;16244;51.956;12.980;2022-07-01T07:20:25;10.60;;;3.58;;
29200;SDS011;16244;51.956;12.980;2022-07-01T07:22:53;8.15;;;2.80;;
29200;SDS011;16244;51.956;12.980;2022-07-01T07:25:20;11.40;;;3.15;;
29200;SDS011;16244;51.956;12.980;2022-07-01T07:27:47;9.55;;;2.90;;
29200;SDS011;16244;51.956;12.980;2022-07-01T07:30:15;8.98;;;2.42;;
29200;SDS011;16244;51.956;12.980;2022-07-01T07:32:42;9.88;;;2.72;;
29200;SDS011;16244;51.956;12.980;2022-07-01T07:35:09;7.93;;;1.92;;
29200;SDS011;16244;51.956;12.980;2022-07-01T07:37:39;8.68;;;2.28;;
29200;SDS011;16244;51.956;12.980;2022-07-01T07:40:07;11.35;;;2.20;;
29200;SDS011;16244;51.956;12.980;2022-07-01T07:42:38;6.90;;;1.65;;
29200;SDS011;16244;51.956;12.980;2022-07-01T07:45:06;10.23;;;1.83;;
29200;SDS011;16244;51.956;12.980;2022-07-01T07:47:34;8.35;;;2.08;;
29200;SDS011;16244;51.956;12.980;2022-07-01T07:50:02;7.15;;;1.40;;
29200;SDS011;16244;51.956;12.980;2022-07-01T07:52:30;8.68;;;1.90;;
29200;SDS011;16244;51.956;12.980;2022-07-01T07:54:59;6.80;;;1.70;;
29200;SDS011;16244;51.956;12.980;2022-07-01T07:57:26;9.05;;;1.90;;
29200;SDS011;16244;51.956;12.980;2022-07-01T07:59:53;9.00;;;1.60;;
29200;SDS011;16244;51.956;12.980;2022-07-01T08:02:21;9.63;;;1.75;;
29200;SDS011;16244;51.956;12.980;2022-07-01T08:04:48;7.03;;;1.90;;
29200;SDS011;16244;51.956;12.980;2022-07-01T08:07:15;6.90;;;1.60;;
29200;SDS011;16244;51.956;12.980;2022-07-01T08:09:42;7.77;;;1.80;;
29200;SDS011;16244;51.956;12.980;2022-07-01T08:12:14;8.77;;;1.50;;
29200;SDS011;16244;51.956;12.980;2022-07-01T08:14:42;6.70;;;1.50;;
29200;SDS011;16244;51.956;12.980;2022-07-01T08:17:09;7.93;;;1.57;;
29200;SDS011;16244;51.956;12.980;2022-07-01T08:19:36;7.40;;;1.70;;
29200;SDS011;16244;51.956;12.980;2022-07-01T08:22:03;5.40;;;1.00;;
29200;SDS011;16244;51.956;12.980;2022-07-01T08:24:30;6.33;;;1.30;;
29200;SDS011;16244;51.956;12.980;2022-07-01T08:26:57;7.90;;;1.57;;
29200;SDS011;16244;51.956;12.980;2022-07-01T08:29:26;7.33;;;1.93;;
29200;SDS011;16244;51.956;12.980;2022-07-01T08:31:56;6.30;;;1.67;;
29200;SDS011;16244;51.956;12.980;2022-07-01T08:34:23;6.80;;;1.90;;
29200;SDS011;16244;51.956;12.980;2022-07-01T08:36:50;8.63;;;2.00;;
29200;SDS011;16244;51.956;12.980;2022-07-01T08:39:17;6.27;;;1.53;;
29200;SDS011;16244;51.956;12.980;2022-07-01T08:41:45;4.67;;;1.10;;
29200;SDS011;16244;51.956;12.980;2022-07-01T08:44:12;6.37;;;1.40;;
29200;SDS011;16244;51.956;12.980;2022-07-01T08:46:40;5.67;;;1.10;;
29200;SDS011;16244;51.956;12.980;2022-07-01T08:49:07;10.87;;;6.20;;
29200;SDS011;16244;51.956;12.980;2022-07-01T08:51:34;9.77;;;5.47;;
29200;SDS011;16244;51.956;12.980;2022-07-01T08:54:01;6.63;;;2.37;;
29200;SDS011;16244;51.956;12.980;2022-07-01T08:56:28;7.60;;;2.20;;
29200;SDS011;16244;51.956;12.980;2022-07-01T08:59:07;5.77;;;2.00;;
29200;SDS011;16244;51.956;12.980;2022-07-01T09:01:36;5.47;;;1.97;;
29200;SDS011;16244;51.956;12.980;2022-07-01T09:04:16;5.47;;;1.83;;
29200;SDS011;16244;51.956;12.980;2022-07-01T09:06:45;4.90;;;2.03;;
29200;SDS011;16244;51.956;12.980;2022-07-01T09:09:14;9.10;;;2.70;;
29200;SDS011;16244;51.956;12.980;2022-07-01T09:11:46;4.73;;;2.20;;
29200;SDS011;16244;51.956;12.980;2022-07-01T09:14:19;4.80;;;2.30;;
29200;SDS011;16244;51.956;12.980;2022-07-01T09:16:47;5.67;;;1.60;;
29200;SDS011;16244;51.956;12.980;2022-07-01T09:19:17;3.77;;;1.23;;
29200;SDS011;16244;51.956;12.980;2022-07-01T09:21:47;5.20;;;1.07;;
29200;SDS011;16244;51.956;12.980;2022-07-01T09:24:25;5.97;;;1.40;;
29200;SDS011;16244;51.956;12.980;2022-07-01T09:26:55;3.73;;;1.20;;
29200;SDS011;16244;51.956;12.980;2022-07-01T09:29:26;15.00;;;8.10;;
29200;SDS011;16244;51.956;12.980;2022-07-01T09:31:54;8.40;;;2.83;;
29200;SDS011;16244;51.956;12.980;2022-07-01T09:34:23;5.30;;;2.40;;
29200;SDS011;16244;51.956;12.980;2022-07-01T09:36:53;10.20;;;2.10;;
29200;SDS011;16244;51.956;12.980;2022-07-01T09:39:21;4.93;;;2.53;;
29200;SDS011;16244;51.956;12.980;2022-07-01T09:41:48;5.90;;;2.90;;
29200;SDS011;16244;51.956;12.980;2022-07-01T09:44:16;6.43;;;3.13;;
29200;SDS011;16244;51.956;12.980;2022-07-01T09:46:52;5.97;;;2.60;;
29200;SDS011;16244;51.956;12.980;2022-07-01T09:49:23;6.03;;;2.33;;
29200;SDS011;16244;51.956;12.980;2022-07-01T09:51:51;7.43;;;2.33;;
29200;SDS011;16244;51.956;12.980;2022-07-01T09:54:18;4.90;;;2.13;;
29200;SDS011;16244;51.956;12.980;2022-07-01T09:56:46;4.70;;;1.10;;
29200;SDS011;16244;51.956;12.980;2022-07-01T09:59:14;3.57;;;1.20;;
29200;SDS011;16244;51.956;12.980;2022-07-01T10:01:41;2.87;;;0.90;;
29200;SDS011;16244;51.956;12.980;2022-07-01T10:04:10;2.80;;;0.80;;
29200;SDS011;16244;51.956;12.980;2022-07-01T10:06:46;5.67;;;0.97;;
29200;SDS011;16244;51.956;12.980;2022-07-01T10:09:26;27.03;;;2.43;;
29200;SDS011;16244;51.956;12.980;2022-07-01T10:12:19;2.63;;;0.70;;
29200;SDS011;16244;51.956;12.980;2022-07-01T10:14:58;3.53;;;0.90;;
29200;SDS011;16244;51.956;12.980;2022-07-01T10:17:27;5.03;;;0.90;;
29200;SDS011;16244;51.956;12.980;2022-07-01T10:19:55;7.20;;;0.70;;
29200;SDS011;16244;51.956;12.980;2022-07-01T10:22:25;3.80;;;0.70;;
29200;SDS011;16244;51.956;12.980;2022-07-01T10:24:53;3.10;;;1.03;;
29200;SDS011;16244;51.956;12.980;2022-07-01T10:27:21;2.80;;;0.70;;
29200;SDS011;16244;51.956;12.980;2022-07-01T10:30:11;8.00;;;0.73;;
29200;SDS011;16244;51.956;12.980;2022-07-01T10:32:41;4.27;;;0.77;;
29200;SDS011;16244;51.956;12.980;2022-07-01T10:35:12;2.43;;;0.70;;
29200;SDS011;16244;51.956;12.980;2022-07-01T10:40:42;4.63;;;0.80;;
29200;SDS011;16244;51.956;12.980;2022-07-01T10:43:14;2.60;;;0.80;;
29200;SDS011;16244;51.956;12.980;2022-07-01T10:45:43;3.60;;;1.40;;
29200;SDS011;16244;51.956;12.980;2022-07-01T10:48:17;3.53;;;1.23;;
29200;SDS011;16244;51.956;12.980;2022-07-01T10:50:46;6.53;;;1.40;;
29200;SDS011;16244;51.956;12.980;2022-07-01T10:53:15;3.33;;;1.47;;
29200;SDS011;16244;51.956;12.980;2022-07-01T10:55:44;3.80;;;1.40;;
29200;SDS011;16244;51.956;12.980;2022-07-01T10:58:13;4.17;;;1.77;;
29200;SDS011;16244;51.956;12.980;2022-07-01T11:00:41;3.40;;;1.30;;
29200;SDS011;16244;51.956;12.980;2022-07-01T11:03:14;4.30;;;1.10;;
29200;SDS011;16244;51.956;12.980;2022-07-01T11:05:47;4.93;;;1.80;;
29200;SDS011;16244;51.956;12.980;2022-07-01T11:08:18;4.30;;;2.03;;
29200;SDS011;16244;51.956;12.980;2022-07-01T11:10:48;3.10;;;1.40;;
29200;SDS011;16244;51.956;12.980;2022-07-01T11:13:17;5.70;;;1.80;;
29200;SDS011;16244;51.956;12.980;2022-07-01T11:15:46;6.20;;;1.67;;
29200;SDS011;16244;51.956;12.980;2022-07-01T11:18:14;5.43;;;1.73;;
29200;SDS011;16244;51.956;12.980;2022-07-01T11:20:42;9.00;;;1.87;;
29200;SDS011;16244;51.956;12.980;2022-07-01T11:23:10;5.83;;;2.37;;
29200;SDS011;16244;51.956;12.980;2022-07-01T11:25:39;7.00;;;2.70;;
29200;SDS011;16244;51.956;12.980;2022-07-01T11:28:06;4.57;;;2.10;;
29200;SDS011;16244;51.956;12.980;2022-07-01T11:30:33;4.40;;;2.80;;
29200;SDS011;16244;51.956;12.980;2022-07-01T11:33:01;4.10;;;2.87;;
29200;SDS011;16244;51.956;12.980;2022-07-01T11:35:28;4.43;;;2.13;;
29200;SDS011;16244;51.956;12.980;2022-07-01T11:38:16;5.17;;;2.17;;
29200;SDS011;16244;51.956;12.980;2022-07-01T11:41:04;5.27;;;2.10;;
29200;SDS011;16244;51.956;12.980;2022-07-01T11:43:33;8.37;;;2.80;;
29200;SDS011;16244;51.956;12.980;2022-07-01T11:46:03;5.00;;;2.23;;
29200;SDS011;16244;51.956;12.980;2022-07-01T11:48:32;5.60;;;2.10;;
29200;SDS011;16244;51.956;12.980;2022-07-01T11:51:07;7.93;;;1.60;;
29200;SDS011;16244;51.956;12.980;2022-07-01T11:53:37;5.70;;;1.60;;
29200;SDS011;16244;51.956;12.980;2022-07-01T11:56:08;3.37;;;1.70;;
29200;SDS011;16244;51.956;12.980;2022-07-01T11:58:48;4.40;;;1.30;;
29200;SDS011;16244;51.956;12.980;2022-07-01T12:01:23;3.33;;;1.40;;
29200;SDS011;16244;51.956;12.980;2022-07-01T12:03:53;4.00;;;1.27;;
29200;SDS011;16244;51.956;12.980;2022-07-01T12:06:20;5.23;;;1.40;;
29200;SDS011;16244;51.956;12.980;2022-07-01T12:08:50;3.57;;;1.33;;
29200;SDS011;16244;51.956;12.980;2022-07-01T12:11:20;4.20;;;1.50;;
29200;SDS011;16244;51.956;12.980;2022-07-01T12:13:48;3.50;;;1.20;;
29200;SDS011;16244;51.956;12.980;2022-07-01T12:16:16;4.10;;;1.37;;
29200;SDS011;16244;51.956;12.980;2022-07-01T12:18:51;2.90;;;1.20;;
29200;SDS011;16244;51.956;12.980;2022-07-01T12:21:20;3.77;;;1.30;;
29200;SDS011;16244;51.956;12.980;2022-07-01T12:24:04;3.80;;;1.57;;
29200;SDS011;16244;51.956;12.980;2022-07-01T12:26:35;2.23;;;0.97;;
29200;SDS011;16244;51.956;12.980;2022-07-01T12:29:13;5.90;;;1.30;;
29200;SDS011;16244;51.956;12.980;2022-07-01T12:31:42;2.33;;;0.87;;
29200;SDS011;16244;51.956;12.980;2022-07-01T12:34:09;2.30;;;0.80;;
29200;SDS011;16244;51.956;12.980;2022-07-01T12:36:39;3.80;;;1.93;;
29200;SDS011;16244;51.956;12.980;2022-07-01T12:39:13;3.10;;;1.37;;
29200;SDS011;16244;51.956;12.980;2022-07-01T12:41:49;1.83;;;0.87;;
29200;SDS011;16244;51.956;12.980;2022-07-01T12:44:20;2.70;;;1.47;;
29200;SDS011;16244;51.956;12.980;2022-07-01T12:46:48;5.57;;;1.43;;
29200;SDS011;16244;51.956;12.980;2022-07-01T12:49:20;2.87;;;1.60;;
29200;SDS011;16244;51.956;12.980;2022-07-01T12:51:48;2.40;;;1.20;;
29200;SDS011;16244;51.956;12.980;2022-07-01T12:54:28;20.13;;;12.37;;
29200;SDS011;16244;51.956;12.980;2022-07-01T12:56:59;3.63;;;1.67;;
29200;SDS011;16244;51.956;12.980;2022-07-01T12:59:27;3.00;;;1.60;;
29200;SDS011;16244;51.956;12.980;2022-07-01T13:01:54;2.80;;;1.63;;
29200;SDS011;16244;51.956;12.980;2022-07-01T13:04:26;4.13;;;1.30;;
29200;SDS011;16244;51.956;12.980;2022-07-01T13:06:55;2.97;;;1.87;;
29200;SDS011;16244;51.956;12.980;2022-07-01T13:09:22;4.40;;;2.13;;
29200;SDS011;16244;51.956;12.980;2022-07-01T13:11:49;4.27;;;2.10;;
29200;SDS011;16244;51.956;12.980;2022-07-01T13:14:18;3.87;;;2.10;;
29200;SDS011;16244;51.956;12.980;2022-07-01T13:16:46;3.93;;;2.40;;
29200;SDS011;16244;51.956;12.980;2022-07-01T13:19:13;3.77;;;2.40;;
29200;SDS011;16244;51.956;12.980;2022-07-01T13:21:40;3.87;;;2.40;;
29200;SDS011;16244;51.956;12.980;2022-07-01T13:24:07;5.47;;;2.80;;
29200;SDS011;16244;51.956;12.980;2022-07-01T13:26:34;4.50;;;2.97;;
29200;SDS011;16244;51.956;12.980;2022-07-01T13:29:04;6.13;;;2.60;;
29200;SDS011;16244;51.956;12.980;2022-07-01T13:31:33;4.77;;;3.10;;
29200;SDS011;16244;51.956;12.980;2022-07-01T13:34:00;4.97;;;2.90;;
29200;SDS011;16244;51.956;12.980;2022-07-01T13:36:27;4.53;;;2.43;;
29200;SDS011;16244;51.956;12.980;2022-07-01T13:38:54;6.93;;;1.87;;
29200;SDS011;16244;51.956;12.980;2022-07-01T13:41:21;3.70;;;1.97;;
29200;SDS011;16244;51.956;12.980;2022-07-01T13:43:49;2.77;;;1.53;;
29200;SDS011;16244;51.956;12.980;2022-07-01T13:46:17;3.67;;;1.93;;
29200;SDS011;16244;51.956;12.980;2022-07-01T13:48:46;4.10;;;1.80;;
29200;SDS011;16244;51.956;12.980;2022-07-01T13:51:13;3.33;;;1.83;;
29200;SDS011;16244;51.956;12.980;2022-07-01T13:53:40;4.80;;;2.40;;
29200;SDS011;16244;51.956;12.980;2022-07-01T13:56:07;3.67;;;2.20;;
29200;SDS011;16244;51.956;12.980;2022-07-01T13:58:34;2.90;;;1.70;;
29200;SDS011;16244;51.956;12.980;2022-07-01T14:01:01;4.40;;;2.23;;
29200;SDS011;16244;51.956;12.980;2022-07-01T14:03:29;9.70;;;2.57;;
29200;SDS011;16244;51.956;12.980;2022-07-01T14:05:57;12.60;;;3.70;;
29200;SDS011;16244;51.956;12.980;2022-07-01T14:08:24;6.10;;;2.90;;
29200;SDS011;16244;51.956;12.980;2022-07-01T14:10:52;4.00;;;2.50;;
29200;SDS011;16244;51.956;12.980;2022-07-01T14:13:19;3.90;;;2.40;;
29200;SDS011;16244;51.956;12.980;2022-07-01T14:15:47;3.50;;;2.20;;
29200;SDS011;16244;51.956;12.980;2022-07-01T14:18:14;6.10;;;3.73;;
29200;SDS011;16244;51.956;12.980;2022-07-01T14:20:42;3.60;;;1.90;;
29200;SDS011;16244;51.956;12.980;2022-07-01T14:23:10;2.53;;;1.23;;
29200;SDS011;16244;51.956;12.980;2022-07-01T14:25:37;5.20;;;2.00;;
29200;SDS011;16244;51.956;12.980;2022-07-01T14:28:05;2.60;;;1.50;;
29200;SDS011;16244;51.956;12.980;2022-07-01T14:30:33;4.23;;;1.87;;
29200;SDS011;16244;51.956;12.980;2022-07-01T14:33:00;4.30;;;2.37;;